TAF and METAR

Decoding for American and Canadian METARs and TAFs is not fully implemented.

Could not understand the following METAR

PAFB 290258Z AUTO 20004KT 10SM OVC065 10/03 A2971 RMK AO2 SLP066 T00950033 52023

TAF for Wainwright Army Airfield

TAF PAFB 282300Z 2823/3005 VRB06KT 9999 BKN040 QNH2961INS BECMG 2905/2906 VRB06KT 9999 OVC030 620403 QNH2979INS BECMG 2907/2908 VRB06KT 8000 BR OVC020 620403 QNH2983INS BECMG 2913/2914 VRB06KT 8000 BR OVC015 620403 QNH2998INS BECMG 2919/2920 VRB06KT 9999 NSW FEW015 SCT030 QNH3004INS BECMG 3002/3003 08012KT 9999 SKC QNH3004INS BECMG 3004/3005 08012G18KT 9999 SKC QNH3000INS TX10/2902Z TNM01/2912Z
Report created 29. sep 01:00

between 29. sep 01:00 - 30. sep 07:00

wind 6 knots from various directions visibility > 10km broken clouds (~75% cover) at 4000 feet